This is the latest recevied weather packets stored in our database for station/object SQ5DN-4. If no packets are shown the sender has not sent any weather packets the latest 1 day(s).
| Time | Temp. | Humidity | Pressure | Rain* | Wind** | Luminosity | Snow |
|---|---|---|---|---|---|---|---|
| 1778103512 | 15.56° C | 73% | 1002 hPa | - | - | - | - |
| 1778102532 | 15.56° C | 71% | 1002 hPa | - | - | - | - |
| 1778102038 | 15.56° C | 70% | 1002 hPa | - | - | - | - |
| 1778101552 | 15.56° C | 70% | 1002 hPa | - | - | - | - |
| 1778101042 | 15.56° C | 70% | 1002 hPa | - | - | - | - |
| 1778099442 | 17.78° C | 65% | 1002 hPa | - | - | - | - |
| 1778098937 | 16.67° C | 66% | 1002 hPa | - | - | - | - |
| 1778098432 | 17.22° C | 66% | 1002 hPa | - | - | - | - |
| 1778097317 | 17.78° C | 63% | 1002 hPa | - | - | - | - |
| 1778096172 | 18.33° C | 63% | 1002 hPa | - | - | - | - |
| 1778095607 | 18.33° C | 63% | 1002 hPa | - | - | - | - |
| 1778095017 | 18.33° C | 62% | 1002 hPa | - | - | - | - |
| 1778094430 | 18.89° C | 61% | 1002 hPa | - | - | - | - |
| 1778093857 | 19.44° C | 60% | 1002 hPa | - | - | - | - |
| 1778092792 | 19.44° C | 59% | 1002 hPa | - | - | - | - |
| 1778091667 | 20.56° C | 56% | 1002 hPa | - | - | - | - |
| 1778090557 | 21.11° C | 56% | 1002 hPa | - | - | - | - |
| 1778090052 | 21.67° C | 54% | 1002 hPa | - | - | - | - |
| 1778088437 | 22.22° C | 52% | 1001 hPa | - | - | - | - |
| 1778087847 | 22.78° C | 51% | 1001 hPa | - | - | - | - |
| 1778087277 | 22.78° C | 50% | 1001 hPa | - | - | - | - |
| 1778086722 | 22.22° C | 52% | 1001 hPa | - | - | - | - |
| 1778086227 | 22.78° C | 50% | 1001 hPa | - | - | - | - |
| 1778085102 | 23.33° C | 47% | 1001 hPa | - | - | - | - |
| 1778084037 | 24.44° C | 46% | 1001 hPa | - | - | - | - |
* Rain since midnight (hover to see other rain measurements)
** Current wind speed in m/s (hover to see current wind gust speed)